createdAt,value
2019-04-29T00:00:07.659Z,26.10
2019-04-29T00:02:37.332Z,26.00
2019-04-29T00:05:06.886Z,27.10
2019-04-29T00:07:36.314Z,26.80
2019-04-29T00:10:07.949Z,26.90
2019-04-29T00:12:37.568Z,26.90
2019-04-29T00:15:08.159Z,26.80
2019-04-29T00:20:46.310Z,26.10
2019-04-29T00:23:16.047Z,26.20
2019-04-29T00:25:46.237Z,26.30
2019-04-29T00:28:15.597Z,26.30
2019-04-29T00:30:45.439Z,26.00
2019-04-29T00:33:14.979Z,26.10
2019-04-29T00:35:44.800Z,25.80
2019-04-29T00:38:15.659Z,26.90
2019-04-29T00:40:55.442Z,27.00
2019-04-29T00:43:35.612Z,26.50
2019-04-29T00:46:05.140Z,26.30
2019-04-29T00:48:34.535Z,25.90
2019-04-29T00:51:04.951Z,27.60
2019-04-29T00:53:34.560Z,27.60
2019-04-29T00:56:04.121Z,27.10
2019-04-29T00:58:33.425Z,27.40
2019-04-29T01:01:02.932Z,27.20
2019-04-29T01:03:32.352Z,27.80
2019-04-29T01:06:01.825Z,28.80
2019-04-29T01:08:31.697Z,27.80
2019-04-29T01:11:02.286Z,29.00
2019-04-29T01:13:31.520Z,28.90
2019-04-29T01:16:01.061Z,29.70
2019-04-29T01:18:30.613Z,29.60
2019-04-29T01:20:59.780Z,29.90
2019-04-29T01:23:29.340Z,30.00
2019-04-29T01:25:59.934Z,30.40
2019-04-29T01:28:39.639Z,31.00
2019-04-29T01:31:10.822Z,30.90
2019-04-29T01:33:40.211Z,30.90
2019-04-29T01:39:11.939Z,31.00
2019-04-29T01:41:44.663Z,31.90
2019-04-29T01:44:15.423Z,31.80
2019-04-29T01:46:44.725Z,32.00
2019-04-29T01:49:14.223Z,32.90
2019-04-29T01:51:43.687Z,32.80
2019-04-29T01:54:13.345Z,32.80
2019-04-29T01:56:42.846Z,33.10
2019-04-29T01:59:12.227Z,32.70
2019-04-29T02:01:41.628Z,33.10
2019-04-29T02:04:11.137Z,33.70
2019-04-29T02:06:40.727Z,33.70
2019-04-29T02:09:10.739Z,33.70
2019-04-29T02:11:40.268Z,33.70
2019-04-29T02:14:09.879Z,33.20
2019-04-29T02:16:39.400Z,34.20
2019-04-29T02:19:08.973Z,36.70
2019-04-29T02:21:38.503Z,36.50
2019-04-29T02:24:11.826Z,36.90
2019-04-29T02:26:41.309Z,37.20
2019-04-29T02:29:10.880Z,38.00
2019-04-29T02:31:41.407Z,46.30
2019-04-29T02:34:11.199Z,38.40
2019-04-29T02:36:41.602Z,39.10
2019-04-29T02:39:17.530Z,38.20
2019-04-29T02:44:42.166Z,39.20
2019-04-29T02:47:13.309Z,40.80
2019-04-29T02:49:42.806Z,41.00
2019-04-29T02:52:12.903Z,41.70
2019-04-29T02:54:43.386Z,42.10
2019-04-29T02:57:16.936Z,42.60
2019-04-29T02:59:47.629Z,43.40
2019-04-29T03:02:18.117Z,43.00
2019-04-29T03:05:05.665Z,43.00
2019-04-29T03:07:37.088Z,43.90
2019-04-29T03:10:08.926Z,43.40
2019-04-29T03:12:38.697Z,44.10
2019-04-29T03:15:11.410Z,44.80
2019-04-29T03:17:42.235Z,45.20
2019-04-29T03:20:16.101Z,44.90
2019-04-29T03:22:47.216Z,45.10
2019-04-29T03:25:16.673Z,45.30
2019-04-29T03:27:47.658Z,45.90
2019-04-29T03:30:18.152Z,45.90
2019-04-29T03:32:47.672Z,46.40
2019-04-29T03:35:18.963Z,46.80
2019-04-29T03:37:49.245Z,47.60
2019-04-29T03:40:18.689Z,47.50
2019-04-29T03:42:48.409Z,47.80
2019-04-29T03:45:19.238Z,48.60
2019-04-29T03:47:50.952Z,49.40
2019-04-29T03:50:20.480Z,49.00
2019-04-29T03:52:52.823Z,48.90
2019-04-29T03:55:38.125Z,49.30
2019-04-29T03:57:53.426Z,49.60
2019-04-29T04:00:22.793Z,50.20
2019-04-29T04:03:03.817Z,50.50
2019-04-29T04:05:44.585Z,51.10
2019-04-29T04:08:15.161Z,51.00
2019-04-29T04:10:44.534Z,50.70
2019-04-29T04:13:13.800Z,50.90
2019-04-29T04:15:43.170Z,52.10
2019-04-29T04:18:17.656Z,51.90
2019-04-29T04:20:47.446Z,51.50
2019-04-29T04:23:16.905Z,51.70
2019-04-29T04:25:46.620Z,51.40
2019-04-29T04:28:16.173Z,51.20
2019-04-29T04:30:45.651Z,51.80
2019-04-29T04:33:15.181Z,54.30
2019-04-29T04:35:45.571Z,56.70
2019-04-29T04:38:15.850Z,56.60
2019-04-29T04:40:45.796Z,57.70
2019-04-29T04:43:15.217Z,55.90
2019-04-29T04:45:51.871Z,54.80
2019-04-29T04:48:21.318Z,55.30
2019-04-29T04:50:50.995Z,56.70
2019-04-29T04:53:20.654Z,55.70
2019-04-29T04:55:50.271Z,55.50
2019-04-29T04:58:20.497Z,56.50
2019-04-29T05:00:50.622Z,57.00
2019-04-29T05:03:20.087Z,57.00
2019-04-29T05:05:49.921Z,56.80
2019-04-29T05:08:19.172Z,58.10
2019-04-29T05:10:48.730Z,58.00
2019-04-29T05:13:28.032Z,57.70
2019-04-29T05:15:47.958Z,56.70
2019-04-29T05:18:17.272Z,56.00
2019-04-29T05:20:46.952Z,55.60
2019-04-29T05:23:17.341Z,59.00
2019-04-29T05:25:47.009Z,58.50
2019-04-29T05:28:16.374Z,58.80
2019-04-29T05:30:45.611Z,58.50
2019-04-29T05:33:15.164Z,58.40
2019-04-29T05:35:48.820Z,59.20
2019-04-29T05:38:30.476Z,59.90
2019-04-29T05:40:59.920Z,62.10
2019-04-29T05:43:35.445Z,60.90
2019-04-29T05:46:07.911Z,64.30
2019-04-29T05:48:37.528Z,64.20
2019-04-29T05:51:09.791Z,66.00
2019-04-29T05:53:41.500Z,66.00
2019-04-29T05:56:10.659Z,68.00
2019-04-29T05:58:41.098Z,69.80
2019-04-29T06:01:10.876Z,69.70
2019-04-29T06:03:44.195Z,73.30
2019-04-29T06:06:12.363Z,73.30
2019-04-29T06:08:40.954Z,77.90
2019-04-29T06:11:11.402Z,81.90
2019-04-29T06:13:40.553Z,81.80
2019-04-29T06:16:10.363Z,84.20
2019-04-29T06:18:40.955Z,90.60
2019-04-29T06:21:10.518Z,90.50
2019-04-29T06:23:39.821Z,91.60
2019-04-29T06:26:09.418Z,91.20
2019-04-29T06:28:39.707Z,92.10
2019-04-29T06:31:09.370Z,92.10
2019-04-29T06:33:38.859Z,92.60
2019-04-29T06:36:09.122Z,94.60
2019-04-29T06:38:38.820Z,94.60
2019-04-29T06:41:09.706Z,94.60
2019-04-29T06:43:38.896Z,94.30
2019-04-29T06:46:08.519Z,93.40
2019-04-29T06:48:37.870Z,94.10
2019-04-29T06:51:07.416Z,95.70
2019-04-29T06:53:36.927Z,95.90
2019-04-29T06:56:08.925Z,95.20
2019-04-29T06:58:36.631Z,95.10
2019-04-29T07:01:05.594Z,96.20
2019-04-29T07:03:34.984Z,94.40
2019-04-29T07:06:05.896Z,93.50
2019-04-29T07:08:35.020Z,93.50
2019-04-29T07:11:04.700Z,92.10
2019-04-29T07:13:34.986Z,90.00
2019-04-29T07:16:04.356Z,90.00
2019-04-29T07:18:33.601Z,88.10
2019-04-29T07:21:02.871Z,86.10
2019-04-29T07:23:32.375Z,88.10
2019-04-29T07:26:02.119Z,87.70
2019-04-29T07:28:31.631Z,92.40
2019-04-29T07:31:02.649Z,93.20
2019-04-29T07:33:30.747Z,93.10
2019-04-29T07:36:10.355Z,90.80
2019-04-29T07:38:40.577Z,88.00
2019-04-29T07:40:59.931Z,89.60
2019-04-29T07:43:29.574Z,90.90
2019-04-29T07:46:09.699Z,91.60
2019-04-29T07:48:41.882Z,91.20
2019-04-29T07:51:09.643Z,91.20
2019-04-29T07:53:45.188Z,91.50
2019-04-29T07:56:09.650Z,96.10
2019-04-29T07:58:39.821Z,97.10
2019-04-29T08:01:09.107Z,97.10
2019-04-29T08:03:38.591Z,95.10
2019-04-29T08:06:08.242Z,97.50
2019-04-29T08:08:37.799Z,97.20
2019-04-29T08:11:07.282Z,92.00
2019-04-29T08:13:37.976Z,91.70
2019-04-29T08:16:07.736Z,91.80
2019-04-29T08:18:38.315Z,92.60
2019-04-29T08:21:10.270Z,92.50
2019-04-29T08:23:41.046Z,93.60
2019-04-29T08:26:07.094Z,95.30
2019-04-29T08:28:37.498Z,96.60
2019-04-29T08:31:06.961Z,96.50
2019-04-29T08:33:36.806Z,97.70
2019-04-29T08:36:06.389Z,98.50
2019-04-29T08:38:35.741Z,96.50
2019-04-29T08:41:06.506Z,96.90
2019-04-29T08:46:29.966Z,98.10
2019-04-29T08:49:01.143Z,99.90
2019-04-29T08:51:29.203Z,99.90
2019-04-29T08:53:58.690Z,99.90
2019-04-29T08:56:28.030Z,98.80
2019-04-29T08:58:57.720Z,99.90
2019-04-29T09:01:29.311Z,99.90
2019-04-29T09:03:59.122Z,99.90
2019-04-29T09:06:32.383Z,99.90
2019-04-29T09:08:59.569Z,99.90
2019-04-29T09:11:27.077Z,99.90
2019-04-29T09:13:56.382Z,99.90
2019-04-29T09:16:25.793Z,99.90
2019-04-29T09:18:55.132Z,99.90
2019-04-29T09:21:24.725Z,99.90
2019-04-29T09:23:54.351Z,99.90
2019-04-29T09:26:39.027Z,99.90
2019-04-29T09:29:15.379Z,99.20
2019-04-29T09:31:46.737Z,99.10
2019-04-29T09:34:14.639Z,97.60
2019-04-29T09:36:48.096Z,96.60
2019-04-29T09:39:13.718Z,98.10
2019-04-29T09:41:44.952Z,99.90
2019-04-29T09:44:19.156Z,99.90
2019-04-29T09:46:48.943Z,99.90
2019-04-29T09:49:18.361Z,99.90
2019-04-29T09:51:47.694Z,99.90
2019-04-29T09:54:17.229Z,99.90
2019-04-29T09:56:46.736Z,99.90
2019-04-29T09:59:22.178Z,99.90
2019-04-29T10:04:56.776Z,99.90
2019-04-29T10:07:22.200Z,99.90
2019-04-29T10:09:57.556Z,99.90
2019-04-29T10:12:21.552Z,99.90
2019-04-29T10:14:51.797Z,99.90
2019-04-29T10:17:25.936Z,99.90
2019-04-29T10:20:11.263Z,99.90
2019-04-29T10:22:40.783Z,99.90
2019-04-29T10:25:10.349Z,99.90
2019-04-29T10:27:39.802Z,99.90
2019-04-29T10:30:09.977Z,99.90
2019-04-29T10:32:42.336Z,99.90
2019-04-29T10:35:10.707Z,99.90
2019-04-29T10:37:40.460Z,99.90
2019-04-29T10:43:24.585Z,99.90
2019-04-29T10:46:04.675Z,99.90
2019-04-29T10:48:44.703Z,99.90
2019-04-29T10:51:14.299Z,99.90
2019-04-29T10:53:46.762Z,99.90
2019-04-29T10:56:13.849Z,99.90
2019-04-29T10:58:43.261Z,99.90
2019-04-29T11:04:23.028Z,99.90
2019-04-29T11:06:52.837Z,99.90
2019-04-29T11:09:28.259Z,99.90
2019-04-29T11:11:58.252Z,99.90
2019-04-29T11:14:27.716Z,99.90
2019-04-29T11:16:56.855Z,99.90
2019-04-29T11:19:26.300Z,99.90
2019-04-29T11:21:57.073Z,99.90
2019-04-29T11:24:40.749Z,99.90
2019-04-29T11:27:12.996Z,99.90
2019-04-29T11:29:42.422Z,99.90
2019-04-29T11:32:14.894Z,99.90
2019-04-29T11:34:48.390Z,99.90
2019-04-29T11:37:19.466Z,99.90
2019-04-29T11:39:50.351Z,99.90
2019-04-29T11:42:18.087Z,99.90
2019-04-29T11:44:47.476Z,99.90
2019-04-29T11:47:20.897Z,99.90
2019-04-29T11:49:48.017Z,99.90
2019-04-29T11:52:17.758Z,99.90
2019-04-29T11:54:47.283Z,99.90
2019-04-29T11:57:18.301Z,99.90
2019-04-29T11:59:51.605Z,99.90
2019-04-29T12:02:45.541Z,99.90
2019-04-29T12:05:08.606Z,99.90
2019-04-29T12:07:36.775Z,99.90
2019-04-29T12:10:06.920Z,99.90
2019-04-29T12:12:36.222Z,99.90
2019-04-29T12:15:13.731Z,99.90
2019-04-29T12:17:41.074Z,99.90
2019-04-29T12:20:11.420Z,99.90
2019-04-29T12:22:48.169Z,99.90
2019-04-29T12:25:10.530Z,99.90
2019-04-29T12:27:39.899Z,99.90
2019-04-29T12:30:09.798Z,99.90
2019-04-29T12:35:29.986Z,99.90
2019-04-29T12:38:05.876Z,99.90
2019-04-29T12:40:32.346Z,99.90
2019-04-29T12:43:16.242Z,99.90
2019-04-29T12:45:44.965Z,99.90
2019-04-29T12:48:24.546Z,99.90
2019-04-29T12:50:44.324Z,99.90
2019-04-29T12:53:13.844Z,99.90
2019-04-29T12:55:48.994Z,99.90
2019-04-29T12:58:14.105Z,99.90
2019-04-29T13:00:48.313Z,99.90
2019-04-29T13:03:16.482Z,99.90
2019-04-29T13:05:58.586Z,99.90
2019-04-29T13:08:27.033Z,99.90
2019-04-29T13:10:56.609Z,99.90
2019-04-29T13:13:25.905Z,99.90
2019-04-29T13:18:53.789Z,99.90
2019-04-29T13:21:19.918Z,99.90
2019-04-29T13:24:04.918Z,99.90
2019-04-29T13:26:28.001Z,99.90
2019-04-29T13:29:00.282Z,99.90
2019-04-29T13:31:20.279Z,99.90
2019-04-29T13:33:50.882Z,99.90
2019-04-29T13:36:19.733Z,99.90
2019-04-29T13:38:47.630Z,99.90
2019-04-29T13:41:23.395Z,99.90
2019-04-29T13:43:47.312Z,99.90
2019-04-29T13:46:19.699Z,99.90
2019-04-29T13:48:56.874Z,99.90
2019-04-29T13:54:14.487Z,99.90
2019-04-29T13:56:55.393Z,99.90
2019-04-29T13:59:18.615Z,99.90
2019-04-29T14:01:59.919Z,99.90
2019-04-29T14:04:24.849Z,99.90
2019-04-29T14:06:57.178Z,99.90
2019-04-29T14:09:24.203Z,99.90
2019-04-29T14:12:01.342Z,99.90
2019-04-29T14:14:24.493Z,99.90
2019-04-29T14:17:11.542Z,99.90
2019-04-29T14:19:40.449Z,99.90
2019-04-29T14:21:52.812Z,99.90
2019-04-29T14:24:22.215Z,99.90
2019-04-29T14:26:51.824Z,99.90
2019-04-29T14:29:22.952Z,99.90
2019-04-29T14:31:54.015Z,99.90
2019-04-29T14:34:22.278Z,99.90
2019-04-29T14:36:57.517Z,99.90
2019-04-29T14:39:36.126Z,99.90
2019-04-29T14:41:55.433Z,99.90
2019-04-29T14:44:30.158Z,99.40
2019-04-29T14:47:00.803Z,96.00
2019-04-29T14:49:30.533Z,92.60
2019-04-29T14:52:03.261Z,90.80
2019-04-29T14:54:30.199Z,90.60
2019-04-29T14:56:59.809Z,90.10
2019-04-29T14:59:29.554Z,89.40
2019-04-29T15:02:00.290Z,90.10
2019-04-29T15:04:31.725Z,86.10
2019-04-29T15:07:01.816Z,81.00
2019-04-29T15:09:31.089Z,80.80
2019-04-29T15:12:01.393Z,80.70
2019-04-29T15:14:36.689Z,77.80
2019-04-29T15:17:12.104Z,77.10
2019-04-29T15:19:49.445Z,73.30
2019-04-29T15:22:18.619Z,69.50
2019-04-29T15:24:47.971Z,69.40
2019-04-29T15:27:17.650Z,67.50
2019-04-29T15:29:47.072Z,64.60
2019-04-29T15:32:17.922Z,64.20
2019-04-29T15:34:48.187Z,64.00
2019-04-29T15:37:17.701Z,60.90
2019-04-29T15:39:47.894Z,60.80
2019-04-29T15:42:17.334Z,60.30
2019-04-29T15:44:46.825Z,56.00
2019-04-29T15:47:16.538Z,56.50
2019-04-29T15:49:46.346Z,56.60
2019-04-29T15:52:16.062Z,56.50
2019-04-29T15:54:45.927Z,53.50
2019-04-29T15:57:16.066Z,53.40
2019-04-29T15:59:49.170Z,49.80
2019-04-29T16:02:15.882Z,49.80
2019-04-29T16:04:48.120Z,49.30
2019-04-29T16:10:30.790Z,44.00
2019-04-29T16:13:12.123Z,43.10
2019-04-29T16:15:41.544Z,45.20
2019-04-29T16:18:14.833Z,42.90
2019-04-29T16:20:40.804Z,42.10
2019-04-29T16:23:10.288Z,42.10
2019-04-29T16:25:40.702Z,39.40
2019-04-29T16:28:09.545Z,34.70
2019-04-29T16:30:39.025Z,29.40
2019-04-29T16:33:13.910Z,26.00
2019-04-29T16:35:38.776Z,22.70
2019-04-29T16:38:11.516Z,22.60
2019-04-29T16:40:39.381Z,21.50
2019-04-29T16:43:27.657Z,21.10
2019-04-29T16:45:53.519Z,21.70
2019-04-29T16:48:22.980Z,21.20
2019-04-29T16:50:52.000Z,22.00
2019-04-29T16:53:21.532Z,22.30
2019-04-29T16:55:50.671Z,23.30
2019-04-29T16:58:20.727Z,20.60
2019-04-29T17:00:52.825Z,20.60
2019-04-29T17:03:20.294Z,19.30
2019-04-29T17:05:49.722Z,18.10
2019-04-29T17:08:19.419Z,16.50
2019-04-29T17:10:53.678Z,15.70
2019-04-29T17:13:23.952Z,14.50
2019-04-29T17:15:53.785Z,13.60
2019-04-29T17:18:22.611Z,12.70
2019-04-29T17:20:51.883Z,12.00
2019-04-29T17:23:24.399Z,11.90
2019-04-29T17:25:50.890Z,11.40
2019-04-29T17:28:25.577Z,11.60
2019-04-29T17:30:55.798Z,11.90
2019-04-29T17:33:31.708Z,12.60
2019-04-29T17:36:00.918Z,12.80
2019-04-29T17:38:30.240Z,12.60
2019-04-29T17:40:59.517Z,11.40
2019-04-29T17:43:38.196Z,11.30
2019-04-29T17:46:06.508Z,10.90
2019-04-29T17:51:35.825Z,10.50
2019-04-29T17:54:05.411Z,10.90
2019-04-29T17:56:36.633Z,10.20
2019-04-29T17:59:13.656Z,10.10
2019-04-29T18:01:45.203Z,9.90
2019-04-29T18:04:20.181Z,10.50
2019-04-29T18:07:10.414Z,9.60
2019-04-29T18:09:34.531Z,10.00
2019-04-29T18:12:05.307Z,9.80
2019-04-29T18:14:40.302Z,9.60
2019-04-29T18:17:05.009Z,10.20
2019-04-29T18:19:38.290Z,10.70
2019-04-29T18:22:22.801Z,10.70
2019-04-29T18:24:52.912Z,11.50
2019-04-29T18:27:25.307Z,12.00
2019-04-29T18:29:55.090Z,11.60
2019-04-29T18:32:35.029Z,11.10
2019-04-29T18:34:55.955Z,10.30
2019-04-29T18:37:24.996Z,10.20
2019-04-29T18:39:57.779Z,10.80
2019-04-29T18:42:23.953Z,11.60
2019-04-29T18:44:57.676Z,10.90
2019-04-29T18:47:27.084Z,10.20
2019-04-29T18:49:53.711Z,10.40
2019-04-29T18:52:26.525Z,10.00
2019-04-29T18:54:54.826Z,10.10
2019-04-29T18:57:28.597Z,10.40
2019-04-29T18:59:52.614Z,9.80
2019-04-29T19:02:22.025Z,10.10
2019-04-29T19:04:53.503Z,11.40
2019-04-29T19:07:21.374Z,12.70
2019-04-29T19:09:50.799Z,14.60
2019-04-29T19:12:21.165Z,16.50
2019-04-29T19:14:50.746Z,18.70
2019-04-29T19:17:21.659Z,18.50
2019-04-29T19:19:50.446Z,19.70
2019-04-29T19:22:19.865Z,21.00
2019-04-29T19:24:49.219Z,21.00
2019-04-29T19:27:18.704Z,22.30
2019-04-29T19:29:48.071Z,23.10
2019-04-29T19:32:18.902Z,22.80
2019-04-29T19:34:50.159Z,24.30
2019-04-29T19:37:17.934Z,24.20
2019-04-29T19:39:47.408Z,23.30
2019-04-29T19:42:28.650Z,24.10
2019-04-29T19:44:46.558Z,24.10
2019-04-29T19:47:16.737Z,25.90
2019-04-29T19:49:45.914Z,27.40
2019-04-29T19:52:18.795Z,28.00
2019-04-29T19:54:45.020Z,28.50
2019-04-29T19:57:15.198Z,29.00
2019-04-29T19:59:51.272Z,29.00
2019-04-29T20:02:16.423Z,29.60
2019-04-29T20:04:52.389Z,30.40
2019-04-29T20:07:19.006Z,31.80
2019-04-29T20:09:49.082Z,33.10
2019-04-29T20:12:18.547Z,32.60
2019-04-29T20:14:48.121Z,33.00
2019-04-29T20:17:23.309Z,32.00
2019-04-29T20:20:09.991Z,35.10
2019-04-29T20:22:43.447Z,33.30
2019-04-29T20:25:10.494Z,31.90
2019-04-29T20:27:41.797Z,31.90
2019-04-29T20:30:16.533Z,31.50
2019-04-29T20:32:40.049Z,30.10
2019-04-29T20:35:09.611Z,29.80
2019-04-29T20:37:39.325Z,32.20
2019-04-29T20:40:09.067Z,29.70
2019-04-29T20:42:40.484Z,27.60
2019-04-29T20:45:10.416Z,29.10
2019-04-29T20:47:41.928Z,29.00
2019-04-29T20:50:13.987Z,32.10
2019-04-29T20:52:46.463Z,29.10
2019-04-29T20:55:16.026Z,28.00
2019-04-29T20:57:47.940Z,27.20
2019-04-29T21:00:20.228Z,27.20
2019-04-29T21:02:48.524Z,27.50
2019-04-29T21:05:23.274Z,27.80
2019-04-29T21:07:49.091Z,26.90
2019-04-29T21:10:16.767Z,26.90
2019-04-29T21:12:50.087Z,26.70
2019-04-29T21:15:20.315Z,24.10
2019-04-29T21:17:50.658Z,25.50
2019-04-29T21:20:20.031Z,25.40
2019-04-29T21:22:52.459Z,24.60
2019-04-29T21:25:19.199Z,24.10
2019-04-29T21:27:48.653Z,24.20
2019-04-29T21:30:18.179Z,25.90
2019-04-29T21:32:47.747Z,27.10
2019-04-29T21:38:17.886Z,28.20
2019-04-29T21:40:52.274Z,27.80
2019-04-29T21:43:26.106Z,27.20
2019-04-29T21:45:55.624Z,26.60
2019-04-29T21:48:33.063Z,25.60
2019-04-29T21:50:54.995Z,24.00
2019-04-29T21:53:25.198Z,23.90
2019-04-29T21:55:55.439Z,24.20
2019-04-29T21:58:23.669Z,23.00
2019-04-29T22:00:55.913Z,23.40
2019-04-29T22:03:26.514Z,24.50
2019-04-29T22:05:53.602Z,25.10
2019-04-29T22:08:27.167Z,24.20
2019-04-29T22:10:53.509Z,24.10
2019-04-29T22:13:24.790Z,25.10
2019-04-29T22:15:52.764Z,24.70
2019-04-29T22:18:21.813Z,24.30
2019-04-29T22:20:51.089Z,24.30
2019-04-29T22:23:20.722Z,24.30
2019-04-29T22:25:50.017Z,24.90
2019-04-29T22:28:20.007Z,24.80
2019-04-29T22:30:54.212Z,24.70
2019-04-29T22:33:19.918Z,24.00
2019-04-29T22:35:49.794Z,24.80
2019-04-29T22:38:19.949Z,24.50
2019-04-29T22:40:49.288Z,24.30
2019-04-29T22:43:22.056Z,25.10
2019-04-29T22:45:52.343Z,24.90
2019-04-29T22:48:21.842Z,24.90
2019-04-29T22:50:51.174Z,26.10
2019-04-29T22:53:21.825Z,26.90
2019-04-29T22:55:51.372Z,26.30
2019-04-29T22:58:20.810Z,26.00
2019-04-29T23:00:50.206Z,25.40
2019-04-29T23:03:20.458Z,26.80
2019-04-29T23:05:49.667Z,26.70
2019-04-29T23:08:19.122Z,26.80
2019-04-29T23:10:48.539Z,25.40
2019-04-29T23:13:18.068Z,24.90
2019-04-29T23:15:47.378Z,24.50
2019-04-29T23:18:24.643Z,24.70
2019-04-29T23:20:52.057Z,25.10
2019-04-29T23:23:29.113Z,24.30
2019-04-29T23:25:59.980Z,24.30
2019-04-29T23:28:28.419Z,23.70
2019-04-29T23:30:57.694Z,24.50
2019-04-29T23:33:27.213Z,23.40
2019-04-29T23:35:56.768Z,23.70
2019-04-29T23:38:26.196Z,24.00
2019-04-29T23:40:56.419Z,25.20
2019-04-29T23:43:28.496Z,25.20
2019-04-29T23:45:56.978Z,25.20
2019-04-29T23:48:38.109Z,25.30
2019-04-29T23:50:58.187Z,25.30
2019-04-29T23:53:26.618Z,24.70
2019-04-29T23:56:00.249Z,25.30
2019-04-29T23:58:32.599Z,24.10
